Columbus Township, Michigan
Current Conditions -  °F | °C
As of 8:16 AM on Friday 24 Oct 2014 (Local Time) from KPHN Reporting Station
Haze Haze  
Wind Chill: -1°   Ceiling: Unl
Heat Index: -1°   Visibility: 2.5mi
Dew Point: -1°   Wind: 0mph
Humidity: 100%   Direction: NA
Pressure: 30.07"   Gusts: NA
Location:  42.856°N, 82.6757°W
Report Text: KPHN 241216Z AUTO 00000KT 2 1/2SM BR CLR M01/M01 A3007 RMK AO2 VIS 1 3/4V4
Loading
Personal Weather Stations






























Interactive Weather Map
Tropical Storm Tracking
New forecast layout! Learn more

10-Day Weather Forecast

Advertisements
Track Severe Weather on mobile